createdAt,value
2018-06-08T00:00:16.165Z,99.90
2018-06-08T00:02:44.468Z,99.90
2018-06-08T00:05:12.759Z,99.90
2018-06-08T00:07:41.048Z,99.90
2018-06-08T00:10:09.356Z,99.90
2018-06-08T00:12:37.932Z,99.90
2018-06-08T00:15:06.936Z,99.90
2018-06-08T00:17:35.508Z,99.90
2018-06-08T00:20:04.196Z,99.90
2018-06-08T00:22:32.508Z,99.90
2018-06-08T00:25:00.888Z,99.90
2018-06-08T00:27:29.568Z,99.90
2018-06-08T00:29:58.112Z,99.90
2018-06-08T00:32:27.024Z,99.90
2018-06-08T00:34:55.615Z,99.90
2018-06-08T00:37:24.172Z,99.90
2018-06-08T00:39:52.480Z,99.90
2018-06-08T00:42:20.817Z,99.90
2018-06-08T00:44:49.105Z,99.90
2018-06-08T00:47:17.427Z,99.90
2018-06-08T00:49:46.995Z,99.90
2018-06-08T00:52:15.317Z,99.90
2018-06-08T00:54:44.483Z,99.90
2018-06-08T00:57:12.823Z,99.90
2018-06-08T00:59:41.138Z,99.90
2018-06-08T01:02:09.497Z,99.90
2018-06-08T01:04:38.083Z,99.90
2018-06-08T01:07:06.583Z,99.90
2018-06-08T01:09:34.895Z,99.90
2018-06-08T01:12:03.561Z,99.90
2018-06-08T01:14:33.349Z,99.90
2018-06-08T01:17:02.033Z,99.90
2018-06-08T01:19:34.087Z,99.90
2018-06-08T01:22:03.041Z,99.90
2018-06-08T01:24:32.298Z,99.90
2018-06-08T01:27:01.102Z,99.90
2018-06-08T01:29:29.407Z,99.90
2018-06-08T01:31:57.770Z,99.90
2018-06-08T01:34:26.080Z,99.90
2018-06-08T01:36:54.388Z,99.90
2018-06-08T01:39:23.020Z,99.90
2018-06-08T01:41:51.318Z,99.90
2018-06-08T01:44:19.865Z,99.90
2018-06-08T01:46:48.177Z,99.90
2018-06-08T01:49:16.830Z,99.90
2018-06-08T01:51:45.403Z,99.90
2018-06-08T01:54:13.703Z,99.90
2018-06-08T01:56:42.016Z,99.90
2018-06-08T01:59:10.320Z,99.90
2018-06-08T02:01:38.651Z,99.90
2018-06-08T02:04:06.966Z,99.90
2018-06-08T02:06:35.279Z,99.90
2018-06-08T02:09:04.343Z,99.90
2018-06-08T02:11:32.912Z,99.90
2018-06-08T02:14:01.384Z,99.90
2018-06-08T02:16:29.737Z,99.90
2018-06-08T02:18:58.221Z,99.90
2018-06-08T02:21:26.539Z,99.90
2018-06-08T02:23:54.899Z,99.90
2018-06-08T02:26:23.483Z,99.90
2018-06-08T02:28:51.799Z,99.90
2018-06-08T02:31:20.112Z,99.90
2018-06-08T02:33:48.623Z,99.90
2018-06-08T02:36:16.921Z,99.90
2018-06-08T02:38:45.516Z,99.90
2018-06-08T02:41:13.831Z,99.90
2018-06-08T02:43:43.125Z,99.90
2018-06-08T02:46:11.539Z,99.90
2018-06-08T02:48:40.513Z,99.90
2018-06-08T02:51:08.835Z,99.90
2018-06-08T02:53:37.575Z,99.90
2018-06-08T02:56:05.893Z,99.90
2018-06-08T02:58:34.481Z,99.90
2018-06-08T03:01:03.433Z,99.90
2018-06-08T03:03:32.027Z,99.90
2018-06-08T03:06:00.523Z,99.90
2018-06-08T03:08:28.869Z,99.90
2018-06-08T03:10:57.223Z,99.90
2018-06-08T03:13:25.526Z,99.90
2018-06-08T03:15:53.853Z,99.90
2018-06-08T03:18:22.529Z,99.90
2018-06-08T03:20:50.892Z,99.90
2018-06-08T03:23:19.336Z,99.90
2018-06-08T03:25:47.961Z,99.90
2018-06-08T03:28:16.432Z,99.90
2018-06-08T03:30:44.776Z,99.90
2018-06-08T03:33:13.152Z,99.90
2018-06-08T03:35:41.622Z,99.90
2018-06-08T03:38:10.400Z,99.90
2018-06-08T03:40:38.743Z,99.90
2018-06-08T03:43:07.083Z,99.90
2018-06-08T03:45:35.497Z,99.90
2018-06-08T03:48:04.479Z,99.90
2018-06-08T03:50:33.104Z,99.90
2018-06-08T03:53:01.445Z,99.90
2018-06-08T03:55:29.823Z,99.90
2018-06-08T03:57:58.782Z,99.90
2018-06-08T04:00:27.392Z,99.90
2018-06-08T04:02:56.104Z,99.90
2018-06-08T04:05:24.725Z,99.90
2018-06-08T04:07:53.354Z,99.90
2018-06-08T04:10:21.960Z,99.90
2018-06-08T04:12:50.444Z,99.90
2018-06-08T04:15:18.988Z,99.90
2018-06-08T04:17:47.620Z,99.90
2018-06-08T04:20:16.228Z,99.90
2018-06-08T04:22:44.856Z,99.90
2018-06-08T04:25:13.490Z,99.90
2018-06-08T04:27:41.828Z,99.90
2018-06-08T04:30:10.276Z,99.90
2018-06-08T04:32:38.662Z,99.90
2018-06-08T04:35:07.443Z,99.90
2018-06-08T04:37:36.076Z,99.90
2018-06-08T04:40:04.454Z,99.90
2018-06-08T04:42:33.103Z,99.90
2018-06-08T04:45:01.712Z,99.90
2018-06-08T04:47:30.077Z,99.90
2018-06-08T04:49:58.441Z,99.90
2018-06-08T04:52:26.999Z,99.90
2018-06-08T04:54:55.635Z,99.90
2018-06-08T04:57:24.018Z,99.90
2018-06-08T04:59:52.373Z,99.90
2018-06-08T05:02:20.940Z,99.90
2018-06-08T05:04:49.291Z,99.90
2018-06-08T05:07:17.943Z,99.90
2018-06-08T05:09:46.332Z,99.90
2018-06-08T05:12:14.861Z,99.90
2018-06-08T05:14:43.501Z,99.90
2018-06-08T05:17:11.848Z,99.90
2018-06-08T05:19:40.429Z,99.90
2018-06-08T05:22:08.852Z,99.90
2018-06-08T05:24:37.144Z,99.90
2018-06-08T05:27:05.781Z,99.90
2018-06-08T05:29:34.244Z,99.90
2018-06-08T05:32:02.560Z,99.90
2018-06-08T05:34:31.142Z,99.90
2018-06-08T05:36:59.786Z,99.90
2018-06-08T05:39:28.176Z,99.90
2018-06-08T05:41:56.463Z,99.90
2018-06-08T05:44:24.768Z,99.90
2018-06-08T05:46:53.344Z,99.90
2018-06-08T05:49:21.704Z,99.90
2018-06-08T05:51:50.304Z,99.90
2018-06-08T05:54:18.672Z,99.90
2018-06-08T05:56:47.370Z,99.90
2018-06-08T05:59:15.681Z,99.90
2018-06-08T06:01:44.035Z,99.90
2018-06-08T06:04:12.351Z,99.90
2018-06-08T06:06:40.671Z,99.90
2018-06-08T06:09:09.232Z,99.90
2018-06-08T06:11:37.863Z,99.90
2018-06-08T06:14:06.523Z,99.90
2018-06-08T06:16:35.057Z,99.90
2018-06-08T06:19:04.000Z,99.90
2018-06-08T06:21:32.332Z,99.90
2018-06-08T06:24:00.968Z,99.90
2018-06-08T06:26:29.378Z,99.90
2018-06-08T06:28:57.958Z,99.90
2018-06-08T06:31:26.529Z,99.90
2018-06-08T06:33:54.848Z,99.90
2018-06-08T06:36:23.395Z,99.90
2018-06-08T06:38:52.236Z,99.90
2018-06-08T06:41:20.910Z,99.90
2018-06-08T06:43:50.126Z,99.90
2018-06-08T06:46:18.954Z,99.90
2018-06-08T06:48:47.888Z,99.90
2018-06-08T06:51:16.190Z,99.90
2018-06-08T06:53:44.500Z,99.90
2018-06-08T06:56:13.072Z,99.90
2018-06-08T06:58:41.381Z,99.90
2018-06-08T07:01:09.679Z,99.90
2018-06-08T07:03:38.248Z,99.90
2018-06-08T07:06:06.807Z,99.90
2018-06-08T07:08:35.107Z,99.90
2018-06-08T07:11:03.677Z,99.90
2018-06-08T07:13:32.306Z,99.90
2018-06-08T07:16:00.877Z,99.90
2018-06-08T07:18:29.355Z,99.90
2018-06-08T07:20:57.657Z,99.90
2018-06-08T07:23:26.300Z,99.90
2018-06-08T07:25:54.948Z,99.90
2018-06-08T07:28:23.798Z,99.90
2018-06-08T07:30:52.504Z,99.90
2018-06-08T07:33:21.094Z,99.90
2018-06-08T07:35:49.485Z,99.90
2018-06-08T07:38:17.856Z,99.90
2018-06-08T07:40:46.480Z,99.90
2018-06-08T07:43:15.054Z,99.90
2018-06-08T07:45:44.088Z,99.90
2018-06-08T07:48:12.454Z,99.90
2018-06-08T07:50:40.939Z,99.90
2018-06-08T07:53:09.577Z,99.90
2018-06-08T07:55:38.131Z,99.90
2018-06-08T07:58:06.760Z,99.90
2018-06-08T08:00:35.346Z,99.90
2018-06-08T08:05:32.403Z,99.90
2018-06-08T08:08:00.831Z,99.90
2018-06-08T08:12:57.279Z,99.90
2018-06-08T08:15:25.641Z,99.90
2018-06-08T08:17:54.276Z,99.90
2018-06-08T08:20:22.669Z,99.90
2018-06-08T08:22:50.981Z,99.90
2018-06-08T08:25:19.333Z,99.90
2018-06-08T08:27:47.893Z,99.90
2018-06-08T08:30:16.183Z,99.90
2018-06-08T08:32:44.491Z,99.90
2018-06-08T08:35:12.798Z,99.90
2018-06-08T08:37:41.176Z,99.90
2018-06-08T08:40:09.837Z,99.90
2018-06-08T08:42:38.129Z,99.90
2018-06-08T08:45:06.720Z,99.90
2018-06-08T08:47:35.452Z,99.90
2018-06-08T08:50:03.802Z,99.90
2018-06-08T08:52:33.162Z,99.90
2018-06-08T08:55:01.458Z,99.90
2018-06-08T08:57:29.774Z,99.90
2018-06-08T08:59:58.160Z,99.90
2018-06-08T09:02:26.460Z,99.90
2018-06-08T09:04:54.918Z,99.90
2018-06-08T09:07:23.213Z,99.90
2018-06-08T09:09:51.541Z,99.90
2018-06-08T09:12:20.125Z,99.90
2018-06-08T09:14:48.793Z,99.90
2018-06-08T09:17:17.495Z,99.90
2018-06-08T09:19:45.949Z,99.90
2018-06-08T09:22:14.256Z,99.90
2018-06-08T09:24:42.749Z,99.90
2018-06-08T09:27:11.054Z,99.90
2018-06-08T09:29:39.352Z,99.90
2018-06-08T09:32:07.654Z,99.90
2018-06-08T09:34:36.448Z,99.90
2018-06-08T09:37:05.131Z,99.90
2018-06-08T09:39:33.774Z,99.90
2018-06-08T09:42:02.348Z,99.90
2018-06-08T09:44:30.939Z,99.90
2018-06-08T09:46:59.492Z,99.90
2018-06-08T09:49:27.813Z,99.90
2018-06-08T09:51:56.320Z,99.90
2018-06-08T09:54:25.009Z,99.90
2018-06-08T09:56:53.386Z,99.90
2018-06-08T09:59:21.683Z,99.90
2018-06-08T10:01:49.983Z,99.90
2018-06-08T10:04:18.567Z,99.90
2018-06-08T10:06:47.191Z,99.30
2018-06-08T10:09:15.766Z,99.90
2018-06-08T10:11:44.077Z,97.00
2018-06-08T10:14:12.489Z,95.70
2018-06-08T10:16:41.003Z,99.30
2018-06-08T10:19:09.510Z,96.70
2018-06-08T10:21:38.155Z,95.30
2018-06-08T10:24:06.855Z,93.00
2018-06-08T10:26:35.453Z,92.70
2018-06-08T10:29:03.941Z,94.60
2018-06-08T10:31:32.251Z,92.50
2018-06-08T10:34:00.787Z,93.40
2018-06-08T10:36:29.592Z,94.90
2018-06-08T10:38:57.894Z,91.50
2018-06-08T10:41:26.193Z,91.30
2018-06-08T10:43:54.796Z,90.40
2018-06-08T10:46:23.116Z,85.30
2018-06-08T10:48:51.433Z,83.10
2018-06-08T10:51:20.100Z,90.10
2018-06-08T10:54:31.453Z,91.20
2018-06-08T10:56:59.981Z,85.60
2018-06-08T10:59:28.287Z,85.20
2018-06-08T11:01:56.612Z,85.30
2018-06-08T11:04:24.922Z,86.20
2018-06-08T11:09:22.592Z,79.60
2018-06-08T11:11:51.015Z,81.80
2018-06-08T11:14:19.355Z,77.60
2018-06-08T11:16:47.863Z,81.00
2018-06-08T11:19:53.983Z,84.20
2018-06-08T11:22:22.513Z,80.90
2018-06-08T11:24:50.859Z,80.30
2018-06-08T11:27:19.488Z,82.80
2018-06-08T11:29:47.865Z,81.50
2018-06-08T11:32:16.289Z,78.90
2018-06-08T11:34:44.915Z,75.00
2018-06-08T11:37:13.736Z,75.60
2018-06-08T11:39:42.097Z,71.70
2018-06-08T11:42:10.757Z,71.20
2018-06-08T11:44:39.110Z,72.40
2018-06-08T11:47:07.731Z,70.60
2018-06-08T11:49:36.066Z,66.90
2018-06-08T11:52:04.532Z,68.60
2018-06-08T11:54:32.904Z,62.80
2018-06-08T11:57:01.533Z,70.40
2018-06-08T11:59:30.169Z,62.70
2018-06-08T12:01:58.540Z,64.90
2018-06-08T12:04:26.908Z,62.50
2018-06-08T12:06:55.268Z,65.00
2018-06-08T12:09:23.896Z,63.70
2018-06-08T12:11:52.516Z,63.50
2018-06-08T12:14:21.172Z,61.60
2018-06-08T12:16:49.540Z,63.60
2018-06-08T12:19:18.176Z,62.70
2018-06-08T12:21:46.829Z,68.20
2018-06-08T12:24:15.210Z,62.90
2018-06-08T12:26:43.810Z,59.90
2018-06-08T12:29:12.336Z,61.60
2018-06-08T12:31:40.955Z,64.20
2018-06-08T12:34:10.288Z,61.00
2018-06-08T12:36:38.771Z,60.00
2018-06-08T12:39:08.179Z,59.80
2018-06-08T12:41:36.924Z,59.60
2018-06-08T12:44:05.289Z,58.90
2018-06-08T12:46:33.655Z,56.30
2018-06-08T12:49:02.171Z,59.10
2018-06-08T12:51:30.660Z,58.50
2018-06-08T12:53:59.541Z,59.30
2018-06-08T12:56:28.541Z,60.30
2018-06-08T12:58:56.923Z,57.60
2018-06-08T13:01:25.285Z,59.60
2018-06-08T13:03:53.661Z,55.20
2018-06-08T13:06:22.289Z,59.30
2018-06-08T13:08:50.660Z,56.00
2018-06-08T13:11:19.286Z,57.10
2018-06-08T13:13:47.941Z,57.20
2018-06-08T13:16:16.924Z,55.60
2018-06-08T13:18:45.574Z,57.30
2018-06-08T13:21:14.253Z,54.30
2018-06-08T13:23:43.209Z,55.90
2018-06-08T13:26:11.663Z,60.30
2018-06-08T13:31:08.164Z,67.50
2018-06-08T13:33:37.156Z,66.30
2018-06-08T13:36:06.054Z,64.00
2018-06-08T13:38:34.776Z,58.00
2018-06-08T13:41:03.668Z,59.50
2018-06-08T13:43:31.948Z,59.00
2018-06-08T13:46:00.499Z,57.10
2018-06-08T13:48:29.071Z,59.30
2018-06-08T13:50:57.569Z,55.70
2018-06-08T13:53:26.005Z,54.00
2018-06-08T13:56:37.511Z,59.20
2018-06-08T13:59:06.247Z,60.40
2018-06-08T14:01:35.103Z,58.50
2018-06-08T14:04:04.008Z,58.70
2018-06-08T14:06:32.297Z,57.80
2018-06-08T14:09:00.867Z,55.40
2018-06-08T14:11:29.424Z,56.50
2018-06-08T14:13:57.719Z,59.40
2018-06-08T14:16:26.280Z,57.50
2018-06-08T14:18:54.848Z,54.70
2018-06-08T14:23:52.056Z,50.90
2018-06-08T14:26:20.920Z,50.90
2018-06-08T14:28:49.795Z,54.00
2018-06-08T14:31:18.091Z,54.50
2018-06-08T14:33:46.744Z,55.30
2018-06-08T14:36:15.644Z,53.50
2018-06-08T14:38:44.276Z,54.10
2018-06-08T14:41:12.575Z,54.10
2018-06-08T14:43:41.408Z,54.60
2018-06-08T14:46:10.308Z,51.60
2018-06-08T14:48:38.864Z,51.60
2018-06-08T14:51:07.152Z,49.80
2018-06-08T14:53:35.753Z,51.10
2018-06-08T14:56:04.492Z,50.30
2018-06-08T15:01:00.948Z,52.10
2018-06-08T15:03:29.327Z,51.90
2018-06-08T15:05:57.636Z,53.20
2018-06-08T15:08:25.924Z,53.10
2018-06-08T15:10:54.497Z,55.50
2018-06-08T15:13:22.800Z,54.90
2018-06-08T15:15:51.095Z,54.00
2018-06-08T15:18:19.662Z,56.20
2018-06-08T15:20:47.949Z,55.90
2018-06-08T15:23:16.267Z,53.30
2018-06-08T15:25:44.661Z,55.40
2018-06-08T15:28:13.037Z,56.30
2018-06-08T15:30:41.682Z,56.80
2018-06-08T15:33:09.999Z,58.80
2018-06-08T15:35:38.691Z,60.00
2018-06-08T15:38:07.372Z,61.50
2018-06-08T15:40:35.738Z,62.30
2018-06-08T15:43:04.658Z,65.50
2018-06-08T15:45:33.081Z,66.60
2018-06-08T15:48:01.393Z,67.90
2018-06-08T15:50:30.041Z,68.90
2018-06-08T15:52:58.517Z,69.80
2018-06-08T15:55:27.303Z,70.50
2018-06-08T15:57:55.824Z,71.50
2018-06-08T16:00:24.104Z,73.00
2018-06-08T16:02:53.204Z,74.60
2018-06-08T16:05:21.836Z,72.10
2018-06-08T16:07:50.156Z,73.40
2018-06-08T16:10:18.455Z,74.00
2018-06-08T16:12:47.052Z,75.00
2018-06-08T16:15:15.570Z,75.10
2018-06-08T16:17:43.945Z,73.60
2018-06-08T16:20:12.274Z,74.60
2018-06-08T16:22:40.620Z,72.90
2018-06-08T16:25:09.000Z,73.50
2018-06-08T16:27:37.360Z,71.40
2018-06-08T16:30:06.180Z,72.40
2018-06-08T16:32:34.723Z,72.80
2018-06-08T16:35:03.347Z,71.20
2018-06-08T16:37:31.949Z,72.50
2018-06-08T16:40:00.300Z,75.70
2018-06-08T16:42:28.643Z,77.10
2018-06-08T16:44:57.133Z,78.00
2018-06-08T16:47:25.807Z,80.80
2018-06-08T16:52:22.796Z,81.20
2018-06-08T16:54:51.578Z,81.10
2018-06-08T16:57:20.207Z,82.30
2018-06-08T16:59:48.703Z,80.50
2018-06-08T17:02:17.295Z,81.00
2018-06-08T17:04:46.090Z,81.60
2018-06-08T17:07:14.665Z,83.30
2018-06-08T17:09:43.465Z,80.40
2018-06-08T17:12:12.029Z,81.40
2018-06-08T17:14:40.529Z,82.10
2018-06-08T17:17:09.037Z,83.50
2018-06-08T17:19:37.494Z,82.10
2018-06-08T17:22:06.185Z,81.00
2018-06-08T17:24:34.823Z,81.40
2018-06-08T17:27:03.260Z,82.80
2018-06-08T17:29:31.612Z,83.00
2018-06-08T17:31:59.990Z,85.20
2018-06-08T17:34:28.353Z,86.70
2018-06-08T17:36:56.734Z,88.00
2018-06-08T17:39:25.064Z,87.20
2018-06-08T17:41:54.905Z,88.20
2018-06-08T17:44:23.559Z,89.00
2018-06-08T17:46:52.056Z,90.50
2018-06-08T17:49:20.573Z,91.80
2018-06-08T17:51:48.974Z,92.80
2018-06-08T17:54:17.331Z,93.60
2018-06-08T17:56:46.031Z,93.60
2018-06-08T17:59:15.757Z,94.30
2018-06-08T18:01:44.266Z,95.70
2018-06-08T18:04:12.911Z,96.70
2018-06-08T18:06:41.682Z,97.60
2018-06-08T18:09:10.167Z,99.00
2018-06-08T18:14:07.098Z,99.90
2018-06-08T18:16:35.885Z,99.90
2018-06-08T18:19:04.392Z,99.90
2018-06-08T18:21:32.855Z,99.90
2018-06-08T18:24:01.420Z,99.90
2018-06-08T18:26:30.290Z,99.90
2018-06-08T18:28:59.424Z,99.90
2018-06-08T18:31:27.744Z,99.90
2018-06-08T18:33:56.184Z,99.90
2018-06-08T18:36:24.820Z,99.90
2018-06-08T18:38:53.108Z,99.90
2018-06-08T18:41:21.450Z,99.90
2018-06-08T18:43:50.080Z,99.90
2018-06-08T18:46:18.372Z,99.90
2018-06-08T18:48:46.797Z,99.90
2018-06-08T18:51:15.120Z,99.90
2018-06-08T18:53:44.105Z,99.90
2018-06-08T18:56:13.294Z,99.90
2018-06-08T18:58:41.607Z,99.90
2018-06-08T19:01:10.362Z,99.90
2018-06-08T19:03:38.847Z,99.90
2018-06-08T19:06:07.191Z,99.90
2018-06-08T19:08:35.755Z,99.90
2018-06-08T19:11:04.329Z,99.90
2018-06-08T19:13:32.681Z,99.90
2018-06-08T19:16:01.453Z,99.90
2018-06-08T19:18:30.073Z,99.90
2018-06-08T19:20:58.673Z,99.90
2018-06-08T19:23:27.272Z,99.90
2018-06-08T19:25:56.089Z,99.90
2018-06-08T19:28:24.568Z,99.90
2018-06-08T19:30:52.944Z,99.90
2018-06-08T19:33:22.012Z,99.90
2018-06-08T19:35:50.523Z,99.90
2018-06-08T19:38:19.360Z,99.90
2018-06-08T19:40:48.472Z,99.90
2018-06-08T19:43:17.535Z,99.90
2018-06-08T19:45:45.896Z,99.90
2018-06-08T19:48:14.440Z,99.90
2018-06-08T19:50:42.772Z,99.90
2018-06-08T19:53:11.112Z,99.90
2018-06-08T19:55:39.688Z,99.90
2018-06-08T19:58:08.325Z,99.90
2018-06-08T20:00:36.883Z,99.90
2018-06-08T20:05:33.468Z,99.90
2018-06-08T20:08:02.006Z,99.90
2018-06-08T20:10:30.588Z,99.90
2018-06-08T20:12:59.051Z,99.90
2018-06-08T20:15:27.395Z,99.90
2018-06-08T20:17:55.984Z,99.90
2018-06-08T20:20:24.341Z,99.90
2018-06-08T20:22:52.693Z,99.90
2018-06-08T20:25:21.183Z,99.90
2018-06-08T20:27:49.493Z,99.90
2018-06-08T20:30:17.889Z,99.90
2018-06-08T20:32:46.232Z,99.90
2018-06-08T20:35:14.817Z,99.90
2018-06-08T20:37:43.369Z,99.90
2018-06-08T20:40:11.956Z,99.90
2018-06-08T20:42:40.265Z,99.90
2018-06-08T20:45:08.836Z,99.90
2018-06-08T20:47:37.480Z,99.90
2018-06-08T20:50:05.929Z,99.90
2018-06-08T20:52:35.420Z,99.90
2018-06-08T20:55:03.848Z,99.90
2018-06-08T20:57:32.148Z,99.90
2018-06-08T21:00:00.860Z,99.90
2018-06-08T21:02:29.507Z,99.90
2018-06-08T21:04:57.922Z,99.90
2018-06-08T21:07:26.495Z,99.90
2018-06-08T21:09:54.935Z,99.90
2018-06-08T21:12:23.220Z,99.90
2018-06-08T21:14:52.248Z,99.90
2018-06-08T21:17:21.464Z,99.90
2018-06-08T21:19:50.411Z,99.90
2018-06-08T21:22:18.715Z,99.90
2018-06-08T21:24:47.431Z,99.90
2018-06-08T21:27:15.770Z,99.90
2018-06-08T21:29:44.255Z,99.90
2018-06-08T21:32:12.619Z,99.90
2018-06-08T21:34:41.211Z,99.90
2018-06-08T21:37:09.543Z,99.90
2018-06-08T21:39:38.343Z,99.90
2018-06-08T21:42:06.712Z,99.90
2018-06-08T21:44:35.068Z,99.90
2018-06-08T21:47:03.496Z,99.90
2018-06-08T21:49:31.956Z,99.90
2018-06-08T21:52:00.456Z,99.90
2018-06-08T21:54:29.292Z,99.90
2018-06-08T21:56:57.938Z,99.90
2018-06-08T21:59:26.276Z,99.90
2018-06-08T22:01:54.927Z,99.90
2018-06-08T22:04:24.097Z,99.90
2018-06-08T22:06:52.705Z,99.90
2018-06-08T22:09:21.048Z,99.90
2018-06-08T22:11:49.588Z,99.90
2018-06-08T22:14:18.257Z,99.90
2018-06-08T22:16:47.496Z,99.90
2018-06-08T22:19:16.172Z,99.90
2018-06-08T22:21:44.538Z,99.90
2018-06-08T22:24:12.988Z,99.90
2018-06-08T22:26:41.279Z,99.90
2018-06-08T22:29:10.075Z,99.90
2018-06-08T22:31:38.516Z,99.90
2018-06-08T22:34:07.337Z,99.90
2018-06-08T22:36:35.647Z,99.90
2018-06-08T22:39:06.351Z,99.90
2018-06-08T22:41:34.724Z,99.90
2018-06-08T22:44:03.011Z,99.90
2018-06-08T22:46:31.331Z,99.90
2018-06-08T22:48:59.817Z,99.90
2018-06-08T22:51:28.137Z,99.90
2018-06-08T22:53:56.439Z,99.90
2018-06-08T22:56:24.853Z,99.90
2018-06-08T22:58:54.589Z,99.90
2018-06-08T23:01:23.529Z,99.90
2018-06-08T23:03:51.837Z,99.90
2018-06-08T23:06:20.129Z,99.90
2018-06-08T23:08:48.421Z,99.90
2018-06-08T23:11:16.756Z,99.90
2018-06-08T23:13:45.244Z,99.90
2018-06-08T23:16:13.896Z,99.90
2018-06-08T23:18:42.553Z,99.90
2018-06-08T23:21:11.284Z,99.90
2018-06-08T23:23:39.596Z,99.90
2018-06-08T23:26:08.080Z,99.90
2018-06-08T23:28:36.564Z,99.90
2018-06-08T23:31:04.859Z,99.90
2018-06-08T23:33:33.152Z,99.90
2018-06-08T23:36:01.556Z,99.90
2018-06-08T23:38:30.033Z,99.90
2018-06-08T23:40:58.588Z,99.90
2018-06-08T23:43:26.893Z,99.90
2018-06-08T23:45:55.191Z,99.90
2018-06-08T23:48:23.491Z,99.90
2018-06-08T23:50:52.039Z,99.90
2018-06-08T23:53:20.583Z,99.90
2018-06-08T23:55:49.063Z,99.90
2018-06-08T23:58:17.623Z,99.90
